createdAt,value
2023-03-20T00:01:51.568Z,11.46
2023-03-20T00:03:53.480Z,11.45
2023-03-20T00:05:55.332Z,11.55
2023-03-20T00:07:57.830Z,11.49
2023-03-20T00:09:59.600Z,11.46
2023-03-20T00:12:01.490Z,11.43
2023-03-20T00:14:06.522Z,11.33
2023-03-20T00:16:08.610Z,11.42
2023-03-20T00:18:16.637Z,11.33
2023-03-20T00:20:18.790Z,11.30
2023-03-20T00:22:20.584Z,11.42
2023-03-20T00:24:23.502Z,11.18
2023-03-20T00:26:28.414Z,11.22
2023-03-20T00:28:37.581Z,11.23
2023-03-20T00:30:39.338Z,11.18
2023-03-20T00:32:41.274Z,11.16
2023-03-20T00:34:43.131Z,11.28
2023-03-20T00:36:44.978Z,11.34
2023-03-20T00:38:46.788Z,11.21
2023-03-20T00:40:48.508Z,11.19
2023-03-20T00:42:57.209Z,11.23
2023-03-20T00:44:59.750Z,11.28
2023-03-20T00:47:04.374Z,11.40
2023-03-20T00:49:06.555Z,11.36
2023-03-20T00:51:08.277Z,11.28
2023-03-20T00:53:12.172Z,11.23
2023-03-20T00:55:14.172Z,11.14
2023-03-20T00:57:21.729Z,11.18
2023-03-20T00:59:26.877Z,11.20
2023-03-20T01:01:29.808Z,11.25
2023-03-20T01:03:32.271Z,11.27
2023-03-20T01:05:34.302Z,11.32
2023-03-20T01:07:36.695Z,11.38
2023-03-20T01:09:38.362Z,11.38
2023-03-20T01:11:41.200Z,11.44
2023-03-20T01:13:43.130Z,11.42
2023-03-20T01:15:44.997Z,11.19
2023-03-20T01:17:47.074Z,11.28
2023-03-20T01:19:49.493Z,11.08
2023-03-20T01:21:51.613Z,10.97
2023-03-20T01:23:53.372Z,11.07
2023-03-20T01:25:55.096Z,11.09
2023-03-20T01:27:58.184Z,11.09
2023-03-20T01:29:59.824Z,11.21
2023-03-20T01:32:01.788Z,11.24
2023-03-20T01:34:03.821Z,10.98
2023-03-20T01:36:05.842Z,11.02
2023-03-20T01:38:19.031Z,11.01
2023-03-20T01:40:37.318Z,11.00
2023-03-20T01:42:39.198Z,10.95
2023-03-20T01:44:40.882Z,10.99
2023-03-20T01:46:42.840Z,10.92
2023-03-20T01:49:28.456Z,10.83
2023-03-20T01:51:36.315Z,10.83
2023-03-20T01:53:38.097Z,10.91
2023-03-20T01:55:42.227Z,10.92
2023-03-20T01:57:44.459Z,10.83
2023-03-20T01:59:48.726Z,10.91
2023-03-20T02:01:51.260Z,10.80
2023-03-20T02:03:53.655Z,10.70
2023-03-20T02:05:58.681Z,10.77
2023-03-20T02:08:16.974Z,10.75
2023-03-20T02:10:19.695Z,10.82
2023-03-20T02:12:22.057Z,10.95
2023-03-20T02:14:24.160Z,10.85
2023-03-20T02:16:26.270Z,10.85
2023-03-20T02:18:28.681Z,10.88
2023-03-20T02:20:59.142Z,10.81
2023-03-20T02:23:09.878Z,10.90
2023-03-20T02:25:43.835Z,10.93
2023-03-20T02:28:28.494Z,11.04
2023-03-20T02:30:43.268Z,10.95
2023-03-20T02:32:54.411Z,10.97
2023-03-20T02:35:17.592Z,10.97
2023-03-20T02:37:42.936Z,10.97
2023-03-20T02:39:53.074Z,11.04
2023-03-20T02:41:58.938Z,11.01
2023-03-20T02:44:11.827Z,10.88
2023-03-20T02:46:31.766Z,11.03
2023-03-20T02:49:27.137Z,10.91
2023-03-20T02:51:58.020Z,10.86
2023-03-20T02:54:32.403Z,11.02
2023-03-20T02:57:09.300Z,10.91
2023-03-20T02:59:33.547Z,10.89
2023-03-20T03:01:53.294Z,10.96
2023-03-20T03:04:02.320Z,10.88
2023-03-20T03:06:27.708Z,10.88
2023-03-20T03:08:34.582Z,10.86
2023-03-20T03:10:41.909Z,10.98
2023-03-20T03:12:47.071Z,10.89
2023-03-20T03:15:00.680Z,10.80
2023-03-20T03:17:06.042Z,10.87
2023-03-20T03:19:12.239Z,10.91
2023-03-20T03:21:18.722Z,10.74
2023-03-20T03:23:28.290Z,10.87
2023-03-20T03:25:35.242Z,10.99
2023-03-20T03:27:50.437Z,10.96
2023-03-20T03:30:03.543Z,11.10
2023-03-20T03:32:07.686Z,11.06
2023-03-20T03:34:16.144Z,10.92
2023-03-20T03:36:36.406Z,10.92
2023-03-20T03:38:54.624Z,11.01
2023-03-20T03:41:02.276Z,10.96
2023-03-20T03:43:18.968Z,10.93
2023-03-20T03:45:36.103Z,10.98
2023-03-20T03:48:02.218Z,11.07
2023-03-20T03:50:11.848Z,11.13
2023-03-20T03:52:21.355Z,11.14
2023-03-20T03:54:28.613Z,11.23
2023-03-20T03:56:33.653Z,11.14
2023-03-20T03:58:42.400Z,11.13
2023-03-20T04:00:48.140Z,11.18
2023-03-20T04:02:53.400Z,11.21
2023-03-20T04:04:55.481Z,11.24
2023-03-20T04:06:57.195Z,11.30
2023-03-20T04:08:58.992Z,11.25
2023-03-20T04:11:00.758Z,11.16
2023-03-20T04:13:02.435Z,11.24
2023-03-20T04:15:05.797Z,11.30
2023-03-20T04:17:07.467Z,11.26
2023-03-20T04:19:09.235Z,11.32
2023-03-20T04:21:11.886Z,11.41
2023-03-20T04:23:14.780Z,11.35
2023-03-20T04:25:22.620Z,11.38
2023-03-20T04:27:24.459Z,11.34
2023-03-20T04:29:26.446Z,11.18
2023-03-20T04:31:28.744Z,11.30
2023-03-20T04:33:31.313Z,11.23
2023-03-20T04:35:33.039Z,11.34
2023-03-20T04:37:34.694Z,11.30
2023-03-20T04:39:37.508Z,11.44
2023-03-20T04:41:48.139Z,11.18
2023-03-20T04:43:49.774Z,11.37
2023-03-20T04:45:51.550Z,11.33
2023-03-20T04:47:53.294Z,11.27
2023-03-20T04:49:54.976Z,11.39
2023-03-20T04:51:56.792Z,11.20
2023-03-20T04:53:58.459Z,11.24
2023-03-20T04:56:01.923Z,11.17
2023-03-20T04:58:03.885Z,11.33
2023-03-20T05:00:06.454Z,11.36
2023-03-20T05:02:08.243Z,11.41
2023-03-20T05:04:10.148Z,11.36
2023-03-20T05:06:11.917Z,11.24
2023-03-20T05:08:13.639Z,11.22
2023-03-20T05:10:15.686Z,11.30
2023-03-20T05:12:17.603Z,11.25
2023-03-20T05:14:19.336Z,11.12
2023-03-20T05:16:21.288Z,11.16
2023-03-20T05:18:23.013Z,11.18
2023-03-20T05:20:24.670Z,11.17
2023-03-20T05:22:26.435Z,11.24
2023-03-20T05:24:29.210Z,11.05
2023-03-20T05:26:31.046Z,11.25
2023-03-20T05:28:32.937Z,11.33
2023-03-20T05:30:34.785Z,11.23
2023-03-20T05:32:37.064Z,11.33
2023-03-20T05:34:38.973Z,11.34
2023-03-20T05:36:40.835Z,11.16
2023-03-20T05:38:42.534Z,11.25
2023-03-20T05:40:44.253Z,11.32
2023-03-20T05:42:46.848Z,11.22
2023-03-20T05:44:48.620Z,11.17
2023-03-20T05:46:50.451Z,11.25
2023-03-20T05:48:52.134Z,11.18
2023-03-20T05:50:53.860Z,11.06
2023-03-20T05:52:55.690Z,11.08
2023-03-20T05:54:57.374Z,11.02
2023-03-20T05:56:59.314Z,11.04
2023-03-20T05:59:01.265Z,10.99
2023-03-20T06:01:03.166Z,10.98
2023-03-20T06:03:07.069Z,11.11
2023-03-20T06:05:09.230Z,11.12
2023-03-20T06:07:11.033Z,11.17
2023-03-20T06:09:12.881Z,11.10
2023-03-20T06:11:14.719Z,11.11
2023-03-20T06:13:16.450Z,11.25
2023-03-20T06:15:18.220Z,11.33
2023-03-20T06:17:19.946Z,11.42
2023-03-20T06:19:24.575Z,11.47
2023-03-20T06:21:26.339Z,11.40
2023-03-20T06:23:28.029Z,11.46
2023-03-20T06:25:29.742Z,11.41
2023-03-20T06:27:31.480Z,11.44
2023-03-20T06:29:33.284Z,11.43
2023-03-20T06:31:43.791Z,11.34
2023-03-20T06:33:45.655Z,11.42
2023-03-20T06:35:48.400Z,11.48
2023-03-20T06:37:50.095Z,11.50
2023-03-20T06:39:51.962Z,11.47
2023-03-20T06:41:53.634Z,11.46
2023-03-20T06:43:55.859Z,11.43
2023-03-20T06:45:57.599Z,11.43
2023-03-20T06:47:59.272Z,11.40
2023-03-20T06:50:01.168Z,11.45
2023-03-20T06:52:03.109Z,11.48
2023-03-20T06:54:05.292Z,11.50
2023-03-20T06:56:08.214Z,11.27
2023-03-20T06:58:09.970Z,11.39
2023-03-20T07:00:12.229Z,11.50
2023-03-20T07:02:14.133Z,11.59
2023-03-20T07:04:17.453Z,11.47
2023-03-20T07:06:19.310Z,11.45
2023-03-20T07:08:21.033Z,11.59
2023-03-20T07:10:23.755Z,11.49
2023-03-20T07:12:28.698Z,11.56
2023-03-20T07:14:30.632Z,11.40
2023-03-20T07:16:32.379Z,11.32
2023-03-20T07:18:34.088Z,11.38
2023-03-20T07:20:35.806Z,11.41
2023-03-20T07:22:37.710Z,11.43
2023-03-20T07:24:39.364Z,11.45
2023-03-20T07:26:41.375Z,11.44
2023-03-20T07:28:43.033Z,11.44
2023-03-20T07:30:44.795Z,11.41
2023-03-20T07:32:46.528Z,11.51
2023-03-20T07:34:49.742Z,11.64
2023-03-20T07:36:51.862Z,11.67
2023-03-20T07:38:53.590Z,11.57
2023-03-20T07:40:55.673Z,11.59
2023-03-20T07:42:57.391Z,11.50
2023-03-20T07:44:59.152Z,11.56
2023-03-20T07:47:00.836Z,11.64
2023-03-20T07:49:02.622Z,11.56
2023-03-20T07:51:04.581Z,11.52
2023-03-20T07:53:06.309Z,11.50
2023-03-20T07:55:08.539Z,11.68
2023-03-20T07:57:10.269Z,11.70
2023-03-20T07:59:12.944Z,11.63
2023-03-20T08:01:15.471Z,11.44
2023-03-20T08:03:17.451Z,11.61
2023-03-20T08:05:19.419Z,11.67
2023-03-20T08:07:21.553Z,11.67
2023-03-20T08:09:23.433Z,11.72
2023-03-20T08:11:25.312Z,11.69
2023-03-20T08:13:27.381Z,11.69
2023-03-20T08:15:29.061Z,11.57
2023-03-20T08:17:31.004Z,11.68
2023-03-20T08:19:32.696Z,11.72
2023-03-20T08:21:34.460Z,11.79
2023-03-20T08:23:36.183Z,11.71
2023-03-20T08:25:38.976Z,11.84
2023-03-20T08:27:41.160Z,11.73
2023-03-20T08:29:42.898Z,11.94
2023-03-20T08:31:51.360Z,11.80
2023-03-20T08:33:53.115Z,11.82
2023-03-20T08:35:57.160Z,11.99
2023-03-20T08:37:58.931Z,11.99
2023-03-20T08:40:00.971Z,11.99
2023-03-20T08:42:03.729Z,11.94
2023-03-20T08:44:06.537Z,11.91
2023-03-20T08:46:08.720Z,12.06
2023-03-20T08:48:11.278Z,11.70
2023-03-20T08:50:13.055Z,11.73
2023-03-20T08:52:14.881Z,11.70
2023-03-20T08:54:18.598Z,11.83
2023-03-20T08:56:20.277Z,11.61
2023-03-20T08:58:23.430Z,11.73
2023-03-20T09:00:25.846Z,11.74
2023-03-20T09:02:27.678Z,11.85
2023-03-20T09:04:29.429Z,11.82
2023-03-20T09:06:31.620Z,11.88
2023-03-20T09:08:33.436Z,11.89
2023-03-20T09:10:35.529Z,11.70
2023-03-20T09:12:37.352Z,11.90
2023-03-20T09:14:39.272Z,11.90
2023-03-20T09:16:41.511Z,12.00
2023-03-20T09:18:47.972Z,11.94
2023-03-20T09:20:50.340Z,12.00
2023-03-20T09:22:52.012Z,12.22
2023-03-20T09:24:53.846Z,12.36
2023-03-20T09:26:55.836Z,12.27
2023-03-20T09:28:57.638Z,12.37
2023-03-20T09:31:00.083Z,12.42
2023-03-20T09:33:01.899Z,12.54
2023-03-20T09:35:04.237Z,12.36
2023-03-20T09:37:06.782Z,12.51
2023-03-20T09:39:08.984Z,12.57
2023-03-20T09:41:20.446Z,12.55
2023-03-20T09:43:59.738Z,12.41
2023-03-20T09:46:27.135Z,12.53
2023-03-20T09:48:36.268Z,12.68
2023-03-20T09:51:03.677Z,12.69
2023-03-20T09:53:13.610Z,12.70
2023-03-20T09:55:20.840Z,12.54
2023-03-20T09:57:27.406Z,12.68
2023-03-20T09:59:30.767Z,12.71
2023-03-20T10:01:55.709Z,12.83
2023-03-20T10:04:01.348Z,12.81
2023-03-20T10:06:12.422Z,12.97
2023-03-20T10:08:17.137Z,12.92
2023-03-20T10:10:20.733Z,12.95
2023-03-20T10:12:28.480Z,12.81
2023-03-20T10:14:57.442Z,12.89
2023-03-20T10:17:17.463Z,12.99
2023-03-20T10:19:28.036Z,12.86
2023-03-20T10:21:57.583Z,13.00
2023-03-20T10:24:07.191Z,12.87
2023-03-20T10:26:13.824Z,12.89
2023-03-20T10:28:27.402Z,12.94
2023-03-20T10:30:54.649Z,12.91
2023-03-20T10:33:08.297Z,13.00
2023-03-20T10:35:42.236Z,13.16
2023-03-20T10:38:05.529Z,13.17
2023-03-20T10:40:30.424Z,13.26
2023-03-20T10:42:38.057Z,13.18
2023-03-20T10:44:43.383Z,13.33
2023-03-20T10:46:51.672Z,13.25
2023-03-20T10:49:14.859Z,13.38
2023-03-20T10:51:20.290Z,13.44
2023-03-20T10:53:37.205Z,13.28
2023-03-20T10:55:42.812Z,13.41
2023-03-20T10:58:00.783Z,13.30
2023-03-20T11:00:05.020Z,13.38
2023-03-20T11:02:11.614Z,13.49
2023-03-20T11:04:13.427Z,13.60
2023-03-20T11:06:21.956Z,13.42
2023-03-20T11:08:31.430Z,13.49
2023-03-20T11:10:36.510Z,13.56
2023-03-20T11:12:48.907Z,13.42
2023-03-20T11:14:57.316Z,13.41
2023-03-20T11:17:05.054Z,13.31
2023-03-20T11:19:11.003Z,13.22
2023-03-20T11:21:20.725Z,13.25
2023-03-20T11:23:28.302Z,13.28
2023-03-20T11:25:34.166Z,13.20
2023-03-20T11:27:36.928Z,13.19
2023-03-20T11:29:41.480Z,13.24
2023-03-20T11:32:05.064Z,13.30
2023-03-20T11:34:11.974Z,13.31
2023-03-20T11:36:27.659Z,13.42
2023-03-20T11:38:32.024Z,13.38
2023-03-20T11:40:34.918Z,13.45
2023-03-20T11:42:39.776Z,13.54
2023-03-20T11:44:41.972Z,13.61
2023-03-20T11:46:44.389Z,13.58
2023-03-20T11:48:47.063Z,13.55
2023-03-20T11:50:58.825Z,13.40
2023-03-20T11:53:18.087Z,13.53
2023-03-20T11:55:30.802Z,13.65
2023-03-20T11:57:40.496Z,13.74
2023-03-20T11:59:42.537Z,13.72
2023-03-20T12:01:53.770Z,13.42
2023-03-20T12:03:55.885Z,13.57
2023-03-20T12:06:03.534Z,13.66
2023-03-20T12:08:24.517Z,13.76
2023-03-20T12:10:33.097Z,13.74
2023-03-20T12:12:52.776Z,13.79
2023-03-20T12:15:00.433Z,13.70
2023-03-20T12:17:25.103Z,13.77
2023-03-20T12:19:30.967Z,13.77
2023-03-20T12:22:13.124Z,13.66
2023-03-20T12:24:27.790Z,13.75
2023-03-20T12:26:52.984Z,13.73
2023-03-20T12:29:25.992Z,13.80
2023-03-20T12:31:51.554Z,13.70
2023-03-20T12:34:03.536Z,13.85
2023-03-20T12:36:13.914Z,13.95
2023-03-20T12:38:27.464Z,14.00
2023-03-20T12:40:45.912Z,13.96
2023-03-20T12:42:47.945Z,13.99
2023-03-20T12:45:15.008Z,14.02
2023-03-20T12:47:52.287Z,13.90
2023-03-20T12:50:03.255Z,13.83
2023-03-20T12:52:45.982Z,13.73
2023-03-20T12:54:50.874Z,13.69
2023-03-20T12:56:58.371Z,13.72
2023-03-20T12:59:06.758Z,13.73
2023-03-20T13:01:20.669Z,13.61
2023-03-20T13:03:59.459Z,13.71
2023-03-20T13:06:06.350Z,13.68
2023-03-20T13:08:14.801Z,13.72
2023-03-20T13:11:02.319Z,13.83
2023-03-20T13:13:22.046Z,13.97
2023-03-20T13:15:41.755Z,14.01
2023-03-20T13:17:54.646Z,13.88
2023-03-20T13:20:12.567Z,14.06
2023-03-20T13:22:24.355Z,13.94
2023-03-20T13:24:39.041Z,13.86
2023-03-20T13:26:58.498Z,13.89
2023-03-20T13:29:05.395Z,13.85
2023-03-20T13:31:18.311Z,13.85
2023-03-20T13:33:26.573Z,13.93
2023-03-20T13:35:37.817Z,13.97
2023-03-20T13:37:51.106Z,14.00
2023-03-20T13:40:02.981Z,13.89
2023-03-20T13:42:16.413Z,14.07
2023-03-20T13:44:25.202Z,13.93
2023-03-20T13:46:47.415Z,14.04
2023-03-20T13:48:55.084Z,14.05
2023-03-20T13:51:07.939Z,14.03
2023-03-20T13:53:25.031Z,14.06
2023-03-20T13:55:51.890Z,14.09
2023-03-20T13:58:01.367Z,14.06
2023-03-20T14:00:19.566Z,14.02
2023-03-20T14:02:26.904Z,14.07
2023-03-20T14:04:35.455Z,13.85
2023-03-20T14:06:43.871Z,13.92
2023-03-20T14:08:53.124Z,13.94
2023-03-20T14:11:15.060Z,13.84
2023-03-20T14:13:23.256Z,13.79
2023-03-20T14:15:55.855Z,13.88
2023-03-20T14:18:06.487Z,13.87
2023-03-20T14:20:14.011Z,13.95
2023-03-20T14:22:20.046Z,13.96
2023-03-20T14:24:25.125Z,14.05
2023-03-20T14:26:30.877Z,13.95
2023-03-20T14:28:45.997Z,13.99
2023-03-20T14:30:51.859Z,13.89
2023-03-20T14:33:00.976Z,13.98
2023-03-20T14:35:06.841Z,13.94
2023-03-20T14:37:29.001Z,13.93
2023-03-20T14:39:40.134Z,13.89
2023-03-20T14:42:11.073Z,13.82
2023-03-20T14:44:16.345Z,13.91
2023-03-20T14:46:24.632Z,13.90
2023-03-20T14:48:29.044Z,13.76
2023-03-20T14:50:35.595Z,13.81
2023-03-20T14:52:41.370Z,13.69
2023-03-20T14:54:51.795Z,13.75
2023-03-20T14:56:55.699Z,13.68
2023-03-20T14:59:05.066Z,13.84
2023-03-20T15:01:12.727Z,13.84
2023-03-20T15:03:17.683Z,13.84
2023-03-20T15:05:25.484Z,13.68
2023-03-20T15:07:30.965Z,13.90
2023-03-20T15:09:37.514Z,14.02
2023-03-20T15:11:42.783Z,13.99
2023-03-20T15:13:46.472Z,13.99
2023-03-20T15:15:53.551Z,13.83
2023-03-20T15:17:55.693Z,13.64
2023-03-20T15:20:02.605Z,13.71
2023-03-20T15:22:16.901Z,13.83
2023-03-20T15:24:23.722Z,13.87
2023-03-20T15:26:27.049Z,13.95
2023-03-20T15:28:31.474Z,13.95
2023-03-20T15:30:38.284Z,14.03
2023-03-20T15:32:43.522Z,14.09
2023-03-20T15:34:47.748Z,14.09
2023-03-20T15:36:52.079Z,13.97
2023-03-20T15:39:02.442Z,13.94
2023-03-20T15:41:06.822Z,13.85
2023-03-20T15:43:13.654Z,13.76
2023-03-20T15:45:26.375Z,13.72
2023-03-20T15:47:29.434Z,13.82
2023-03-20T15:49:32.769Z,13.81
2023-03-20T15:51:36.337Z,13.77
2023-03-20T15:53:40.193Z,13.70
2023-03-20T15:55:47.392Z,13.76
2023-03-20T15:57:50.678Z,13.55
2023-03-20T15:59:53.452Z,13.64
2023-03-20T16:01:58.626Z,13.51
2023-03-20T16:04:01.399Z,13.50
2023-03-20T16:06:05.632Z,13.34
2023-03-20T16:08:13.391Z,13.48
2023-03-20T16:10:18.460Z,13.33
2023-03-20T16:12:24.118Z,13.43
2023-03-20T16:14:33.848Z,13.50
2023-03-20T16:16:39.908Z,13.43
2023-03-20T16:19:04.341Z,13.43
2023-03-20T16:21:28.748Z,13.49
2023-03-20T16:23:49.421Z,13.42
2023-03-20T16:26:00.406Z,13.11
2023-03-20T16:28:07.299Z,13.14
2023-03-20T16:30:27.144Z,13.24
2023-03-20T16:32:58.362Z,13.06
2023-03-20T16:35:10.227Z,13.04
2023-03-20T16:37:22.408Z,13.08
2023-03-20T16:39:31.067Z,13.04
2023-03-20T16:41:43.411Z,13.18
2023-03-20T16:43:55.545Z,13.16
2023-03-20T16:46:06.940Z,13.06
2023-03-20T16:48:28.737Z,13.11
2023-03-20T16:50:40.624Z,13.11
2023-03-20T16:52:55.304Z,13.21
2023-03-20T16:55:01.928Z,13.33
2023-03-20T16:57:17.410Z,13.25
2023-03-20T16:59:23.188Z,13.20
2023-03-20T17:01:34.041Z,13.38
2023-03-20T17:03:45.939Z,13.40
2023-03-20T17:05:52.501Z,13.22
2023-03-20T17:08:04.274Z,13.36
2023-03-20T17:10:12.636Z,13.34
2023-03-20T17:12:18.199Z,13.33
2023-03-20T17:14:20.728Z,13.48
2023-03-20T17:16:24.793Z,13.35
2023-03-20T17:18:29.024Z,13.41
2023-03-20T17:20:32.210Z,13.51
2023-03-20T17:22:36.377Z,13.31
2023-03-20T17:24:38.716Z,13.38
2023-03-20T17:26:43.264Z,13.47
2023-03-20T17:28:45.583Z,13.48
2023-03-20T17:30:50.149Z,13.44
2023-03-20T17:32:53.479Z,13.25
2023-03-20T17:34:56.149Z,13.36
2023-03-20T17:36:59.960Z,13.33
2023-03-20T17:39:02.584Z,13.23
2023-03-20T17:41:04.985Z,13.17
2023-03-20T17:43:11.645Z,13.14
2023-03-20T17:45:18.553Z,12.87
2023-03-20T17:47:24.781Z,12.78
2023-03-20T17:49:27.839Z,12.95
2023-03-20T17:51:31.174Z,12.69
2023-03-20T17:53:33.596Z,12.80
2023-03-20T17:55:35.785Z,12.83
2023-03-20T17:57:40.272Z,12.83
2023-03-20T17:59:42.475Z,12.82
2023-03-20T18:01:45.936Z,12.80
2023-03-20T18:03:48.109Z,12.77
2023-03-20T18:05:51.695Z,12.82
2023-03-20T18:07:53.799Z,12.75
2023-03-20T18:09:55.832Z,12.69
2023-03-20T18:11:58.073Z,12.64
2023-03-20T18:14:02.159Z,12.68
2023-03-20T18:16:04.681Z,12.73
2023-03-20T18:18:09.278Z,12.57
2023-03-20T18:20:24.906Z,12.76
2023-03-20T18:22:27.084Z,12.64
2023-03-20T18:24:33.367Z,12.71
2023-03-20T18:26:35.796Z,12.69
2023-03-20T18:28:38.097Z,12.68
2023-03-20T18:30:42.442Z,12.56
2023-03-20T18:32:45.202Z,12.58
2023-03-20T18:34:47.468Z,12.62
2023-03-20T18:36:49.625Z,12.65
2023-03-20T18:38:52.773Z,12.59
2023-03-20T18:40:54.918Z,12.65
2023-03-20T18:42:58.273Z,12.73
2023-03-20T18:45:00.524Z,12.64
2023-03-20T18:47:02.764Z,12.65
2023-03-20T18:49:05.120Z,12.77
2023-03-20T18:51:07.531Z,12.64
2023-03-20T18:53:10.762Z,12.51
2023-03-20T18:55:12.898Z,12.58
2023-03-20T18:57:15.233Z,12.57
2023-03-20T18:59:17.316Z,12.60
2023-03-20T19:01:20.938Z,12.62
2023-03-20T19:03:24.810Z,12.59
2023-03-20T19:05:28.961Z,12.69
2023-03-20T19:07:31.024Z,12.66
2023-03-20T19:09:33.015Z,12.76
2023-03-20T19:11:35.414Z,12.78
2023-03-20T19:13:37.744Z,12.78
2023-03-20T19:15:39.867Z,12.67
2023-03-20T19:17:42.052Z,12.78
2023-03-20T19:19:44.281Z,12.88
2023-03-20T19:21:46.701Z,12.82
2023-03-20T19:23:49.084Z,12.77
2023-03-20T19:25:54.839Z,12.70
2023-03-20T19:27:57.182Z,12.79
2023-03-20T19:30:00.606Z,12.77
2023-03-20T19:32:02.887Z,12.76
2023-03-20T19:34:06.088Z,12.73
2023-03-20T19:36:22.298Z,12.62
2023-03-20T19:38:24.604Z,12.64
2023-03-20T19:40:31.704Z,12.68
2023-03-20T19:43:01.576Z,12.68
2023-03-20T19:44:56.090Z,12.59
2023-03-20T19:46:58.411Z,12.70
2023-03-20T19:49:01.421Z,12.76
2023-03-20T19:51:04.609Z,12.65
2023-03-20T19:53:10.296Z,12.70
2023-03-20T19:55:13.569Z,12.66
2023-03-20T19:57:15.704Z,12.67
2023-03-20T19:59:17.828Z,12.68
2023-03-20T20:01:24.006Z,12.39
2023-03-20T20:03:27.477Z,12.68
2023-03-20T20:05:32.924Z,12.71
2023-03-20T20:08:12.732Z,12.77
2023-03-20T20:09:57.417Z,12.89
2023-03-20T20:11:59.809Z,12.74
2023-03-20T20:14:07.080Z,12.88
2023-03-20T20:16:10.813Z,12.86
2023-03-20T20:18:14.572Z,12.70
2023-03-20T20:20:22.741Z,12.86
2023-03-20T20:22:27.751Z,12.78
2023-03-20T20:24:30.089Z,12.70
2023-03-20T20:26:38.901Z,12.76
2023-03-20T20:28:43.292Z,12.66
2023-03-20T20:30:49.664Z,12.69
2023-03-20T20:32:54.386Z,12.62
2023-03-20T20:38:25.287Z,12.65
2023-03-20T20:39:46.303Z,12.66
2023-03-20T20:41:48.964Z,12.76
2023-03-20T20:46:15.258Z,12.75
2023-03-20T20:48:18.972Z,12.66
2023-03-20T20:50:25.227Z,12.76
2023-03-20T20:52:27.496Z,12.63
2023-03-20T20:54:29.870Z,12.57
2023-03-20T20:56:32.276Z,12.49
2023-03-20T20:58:34.697Z,12.52
2023-03-20T21:00:49.439Z,12.29
2023-03-20T21:02:53.670Z,12.43
2023-03-20T21:04:56.533Z,12.37
2023-03-20T21:07:09.282Z,12.27
2023-03-20T21:09:13.358Z,12.30
2023-03-20T21:11:17.006Z,12.35
2023-03-20T21:13:19.481Z,12.42
2023-03-20T21:15:22.037Z,12.35
2023-03-20T21:17:25.435Z,12.28
2023-03-20T21:19:31.044Z,12.23
2023-03-20T21:21:35.272Z,12.30
2023-03-20T21:23:38.408Z,12.24
2023-03-20T21:25:44.674Z,12.31
2023-03-20T21:27:48.751Z,12.16
2023-03-20T21:29:51.265Z,12.25
2023-03-20T21:31:54.679Z,12.20
2023-03-20T21:33:57.160Z,12.14
2023-03-20T21:35:59.984Z,12.09
2023-03-20T21:40:24.376Z,12.20
2023-03-20T21:42:26.691Z,12.25
2023-03-20T21:50:15.133Z,12.12
2023-03-20T21:56:59.846Z,12.23
2023-03-20T22:01:45.894Z,12.09
2023-03-20T22:04:01.695Z,11.95
2023-03-20T22:11:38.429Z,12.07
2023-03-20T22:16:03.545Z,12.06
2023-03-20T22:30:15.101Z,12.01
2023-03-20T22:39:45.795Z,11.90
2023-03-20T22:46:43.804Z,12.02
2023-03-20T22:48:36.799Z,12.09
2023-03-20T22:50:39.253Z,11.97
2023-03-20T22:52:49.242Z,12.09
2023-03-20T22:54:52.183Z,12.13
2023-03-20T22:56:54.370Z,12.07
2023-03-20T22:58:56.541Z,12.03
2023-03-20T23:00:58.926Z,12.10
2023-03-20T23:03:15.301Z,12.00
2023-03-20T23:05:21.880Z,12.15
2023-03-20T23:07:24.163Z,12.11
2023-03-20T23:09:26.451Z,12.14
2023-03-20T23:11:28.927Z,12.17
2023-03-20T23:13:31.117Z,12.18
2023-03-20T23:15:33.439Z,12.17
2023-03-20T23:17:35.981Z,12.22
2023-03-20T23:19:48.799Z,12.11
2023-03-20T23:21:54.080Z,12.02
2023-03-20T23:23:56.619Z,12.06
2023-03-20T23:26:05.258Z,11.98
2023-03-20T23:28:09.902Z,12.00
2023-03-20T23:30:13.307Z,11.92
2023-03-20T23:32:15.645Z,11.97
2023-03-20T23:34:18.271Z,11.98
2023-03-20T23:36:34.892Z,12.10
2023-03-20T23:38:37.867Z,11.98
2023-03-20T23:40:40.142Z,11.93
2023-03-20T23:42:42.472Z,11.97
2023-03-20T23:44:55.362Z,11.99
2023-03-20T23:47:03.300Z,12.02
2023-03-20T23:49:07.967Z,12.03
2023-03-20T23:51:10.273Z,11.99
2023-03-20T23:53:20.292Z,12.09
2023-03-20T23:55:22.800Z,12.02
2023-03-20T23:57:25.094Z,12.06
2023-03-20T23:59:27.338Z,12.07
